Centennial Airport
KAPA : rendu visible

Aérodrome :











RETROUVEZ-NOUS SUR...

 
LOGIN :

S'inscrire | Disclaimer

   EN    FR    IT 

 









Légende :    VFR   VFR Marginal   IFR   IFR Intensif   IFR Très Intensif
Visi : 
Plafond : 
>= 8 km
>= 3000ft
5 à 8 km
1000 à 3000 ft
1500m à 5 km
500 à 1000 ft
800 à 1500m
200 à 500 ft
< 800m
< 200 ft
Symboles :   Orages  Brouillard  Fortes neiges  Fortes précipitations  Vent > 20 kt






- Altitude de l'aérodrome : 5885 ft


KAPA - Centennial

DERNIER METAR :
  • 100853Z 17008KT 10SM CLR M03/M09 A3000 RMK AO2 SLP191 T10331089 55003

METARs EXPIRÉS :
  • 100753Z 16006KT 10SM SCT150 M03/M08 A3000 RMK AO2 SLP187 T10281083
  • 100653Z 17006KT 10SM SCT150 M02/M07 A3001 RMK AO2 SLP187 T10221072 400561044

TAF KAPA
Valide du 10 à 06h jusqu'au 11 à 06h UTC


100533Z 1006/1106 16007KT P6SM SCT150 BKN200
FM100700 19008KT P6SM BKN150
FM101800 35011KT P6SM BKN220
FM102300 04008KT P6SM BKN220
FM110100 14007KT P6SM BKN220



MET'MAP, la Météo Aéronautique d'un coup d'oeil ! - Copyright ORBIFLY Décembre 2007 - Disclaimer

ORBIFLY MET'MAP TEAM :

Programmation & Développement : Alexandra Zaïnal
Sur une idée originale de : Baudouin d'Aumeries
Assistance à la programmation : Marc-Olivier Méhu
Soutien technique & logistique : Manuel Goepfert

Contact : metmap@orbifly.com




SOURCES & CREDITS :

   NOAA       Earth
Advisory